ADDS METAR Data INFO
IDs: Format: Raw Decoded Include TAF

Data at: 0926 UTC 17 Oct 2017

K3LF 170915Z AUTO 18003KT 10SM CLR 05/03 A3030 RMK AO2 T00510030
K3LF 170855Z AUTO 18003KT 10SM CLR 05/03 A3029 RMK AO2 T00510030
K3LF 170835Z AUTO 18004KT 10SM CLR 05/03 A3029 RMK AO2 T00480028
K3LF 170815Z AUTO 17004KT 10SM CLR 05/03 A3028 RMK AO2 T00480029
K3LF 170755Z AUTO 17004KT 10SM CLR 06/03 A3028 RMK AO2 T00550031
K3LF 170735Z AUTO 18004KT 10SM CLR 05/03 A3028 RMK AO2 T00500030
K3LF 170715Z AUTO 18005KT 10SM CLR 05/03 A3028 RMK AO2 T00530030
K3LF 170655Z AUTO 18005KT 10SM CLR 06/03 A3028 RMK AO2 T00560031
K3LF 170635Z AUTO 18005KT 10SM CLR 06/03 A3029 RMK AO2 T00560032
K3LF 170615Z AUTO 19005KT 10SM CLR 06/03 A3028 RMK AO2 T00550031
K3LF 170555Z AUTO 19005KT 10SM CLR 06/03 A3028 RMK AO2 T00550030 10103 20055 401840020
K3LF 170535Z AUTO 18005KT 10SM CLR 06/03 A3029 RMK AO2 T00610032
K3LF 170515Z AUTO 18005KT 10SM CLR 06/03 A3029 RMK AO2 T00590034
K3LF 170455Z AUTO 18005KT 10SM CLR 06/03 A3029 RMK AO2 T00610032
K3LF 170435Z AUTO 19004KT 10SM CLR 06/03 A3029 RMK AO2 T00640034
K3LF 170415Z AUTO 18004KT 10SM CLR 07/04 A3029 RMK AO2 T00690036
K3LF 170355Z AUTO 17003KT 10SM CLR 07/04 A3030 RMK AO2 T00690036
K3LF 170335Z AUTO 17004KT 10SM CLR 07/04 A3030 RMK AO2 T00720038
K3LF 170315Z AUTO 16003KT 10SM CLR 08/04 A3031 RMK AO2 T00840041
K3LF 170255Z AUTO 17004KT 10SM CLR 07/04 A3030 RMK AO2 T00730042
K3LF 170235Z AUTO 17003KT 10SM CLR 07/05 A3030 RMK AO2 T00730045
K3LF 170215Z AUTO 18003KT 10SM CLR 09/04 A3030 RMK AO2 T00870043
K3LF 170155Z AUTO 17003KT 10SM CLR 09/04 A3030 RMK AO2 T00880041
K3LF 170135Z AUTO 17004KT 10SM CLR 09/04 A3028 RMK AO2 T00860042
K3LF 170115Z AUTO 17004KT 10SM CLR 09/04 A3028 RMK AO2 T00880042
K3LF 170055Z AUTO 16004KT 10SM CLR 09/04 A3028 RMK AO2 T00890042
K3LF 170035Z AUTO 17004KT 10SM CLR 10/04 A3028 RMK AO2 T00960042
K3LF 170015Z AUTO 18004KT 10SM CLR 10/04 A3028 RMK AO2 T00970044
K3LF 162355Z AUTO 19005KT 10SM CLR 10/05 A3028 RMK AO2 T01030046 10184 20103
K3LF 162335Z AUTO 20005KT 4SM HZ CLR 11/05 A3028 RMK AO2 T01100045
K3LF 162315Z AUTO 21005KT 7SM CLR 14/04 A3028 RMK AO2 T01350038
K3LF 162255Z AUTO 24003KT 10SM CLR 16/03 A3028 RMK AO2 T01550033
K3LF 162235Z AUTO 24005KT 10SM CLR 17/03 A3028 RMK AO2 T01680025
K3LF 162215Z AUTO 24005KT 10SM CLR 17/02 A3028 RMK AO2 T01720023
K3LF 162155Z AUTO 24006KT 10SM CLR 18/02 A3029 RMK AO2 T01750017
K3LF 162135Z AUTO 27005KT 10SM CLR 18/01 A3029 RMK AO2 T01780011
K3LF 162115Z AUTO 28006KT 10SM CLR 18/01 A3029 RMK AO2 T01790013
K3LF 162055Z AUTO 28007KT 210V300 10SM CLR 18/02 A3030 RMK AO2 T01800021
K3LF 162035Z AUTO 23005KT 10SM CLR 18/01 A3030 RMK AO2 T01780014
K3LF 162015Z AUTO 24008KT 10SM CLR 18/02 A3031 RMK AO2 T01790016
K3LF 161955Z AUTO 30006G15KT 10SM CLR 18/02 A3031 RMK AO2 T01780015
K3LF 161935Z AUTO 25009KT 10SM CLR 18/02 A3032 RMK AO2 T01760022
K3LF 161915Z AUTO 00000KT 10SM CLR 17/02 A3033 RMK AO2 T01700021
K3LF 161855Z AUTO 28003KT 4SM HZ SCT002 17/03 A3033 RMK AO2 T01730025
K3LF 161835Z AUTO 24003KT 7SM CLR 17/02 A3035 RMK AO2 T01700024
K3LF 161815Z AUTO 27007KT 5SM HZ CLR 17/02 A3036 RMK AO2 T01650023
K3LF 161755Z AUTO 00000KT 10SM CLR 16/03 A3037 RMK AO2 T01610034 10162 20021
K3LF 161735Z AUTO 26005KT 10SM CLR 16/03 A3038 RMK AO2 T01620033
K3LF 161715Z AUTO 26004KT 10SM CLR 16/03 A3038 RMK AO2 T01560030
K3LF 161650Z AUTO 28005KT 10SM CLR 15/03 A3039 RMK AO2 T01460028
K3LF 161635Z AUTO 22003KT 10SM CLR 15/03 A3039 RMK AO2 T01460034
K3LF 161615Z AUTO 23003KT 10SM CLR 14/05 A3039 RMK AO2 T01410046
K3LF 161555Z AUTO 00000KT 10SM CLR 13/05 A3039 RMK AO2 T01340049
K3LF 161535Z AUTO 24003KT 10SM CLR 12/05 A3040 RMK AO2 T01230053
K3LF 161515Z AUTO 24005KT 10SM CLR 12/06 A3040 RMK AO2 T01160056
K3LF 161455Z AUTO 23004KT 10SM CLR 11/05 A3040 RMK AO2 T01080053
K3LF 161435Z AUTO 26005KT 10SM CLR 10/06 A3040 RMK AO2 T01020055
K3LF 161415Z AUTO 25003KT 10SM CLR 10/06 A3040 RMK AO2 T00950059
K3LF 161355Z AUTO 26003KT 10SM CLR 08/05 A3040 RMK AO2 T00820054
K3LF 161335Z AUTO 00000KT 10SM CLR 07/06 A3039 RMK AO2 T00730063
K3LF 161315Z AUTO 26003KT 10SM CLR 06/06 A3038 RMK AO2 T00560055
K3LF 161255Z AUTO 00000KT 10SM CLR 04/04 A3038 RMK AO2 T00390038
K3LF 161235Z AUTO 00000KT 10SM CLR 03/03 A3037 RMK AO2 T00260026
K3LF 161215Z AUTO 00000KT 10SM CLR 02/02 A3037 RMK AO2 T00220022
K3LF 161155Z AUTO 00000KT 10SM CLR 02/02 A3037 RMK AO2 70004 T00210021 10047 20020
K3LF 161135Z AUTO 26003KT 10SM CLR 03/03 A3036 RMK AO2 T00250025
K3LF 161115Z AUTO 26003KT 10SM CLR 02/02 A3036 RMK AO2 T00200020
K3LF 161055Z AUTO 25003KT 10SM CLR 02/02 A3036 RMK AO2 T00230023
K3LF 161035Z AUTO 26003KT 10SM CLR 03/02 A3035 RMK AO2 T00250024
K3LF 161015Z AUTO 00000KT 10SM CLR 03/03 A3035 RMK AO2 T00270026
K3LF 160955Z AUTO 00000KT 10SM CLR 03/03 A3035 RMK AO2 T00290028
K3LF 160935Z AUTO 00000KT 10SM CLR 03/03 A3034 RMK AO2 T00330032
K3LF 160915Z AUTO 00000KT 10SM CLR 03/03 A3034 RMK AO2 T00270026
K3LF 160855Z AUTO 00000KT 10SM CLR 03/03 A3034 RMK AO2 T00280027
K3LF 160835Z AUTO 28003KT 10SM CLR 03/03 A3033 RMK AO2 T00330031
K3LF 160815Z AUTO 00000KT 10SM CLR 03/03 A3034 RMK AO2 T00320030
K3LF 160755Z AUTO 00000KT 10SM CLR 04/03 A3034 RMK AO2 T00350032
K3LF 160735Z AUTO 29003KT 10SM CLR 04/03 A3033 RMK AO2 T00360031
K3LF 160715Z AUTO 30003KT 10SM CLR 04/04 A3033 RMK AO2 T00420038
K3LF 160655Z AUTO 00000KT 10SM CLR 04/04 A3033 RMK AO2 T00370035
K3LF 160635Z AUTO 00000KT 10SM CLR 04/04 A3033 RMK AO2 T00400037
K3LF 160615Z AUTO 00000KT 10SM CLR 04/04 A3033 RMK AO2 T00400035
K3LF 160555Z AUTO 00000KT 10SM CLR 05/04 A3032 RMK AO2 T00480042 10110 20047 402350047
K3LF 160535Z AUTO 00000KT 10SM CLR 05/04 A3032 RMK AO2 T00470042
K3LF 160515Z AUTO 31003KT 10SM CLR 05/05 A3033 RMK AO2 T00520045
K3LF 160455Z AUTO 32003KT 10SM CLR 05/05 A3033 RMK AO2 T00530045
K3LF 160435Z AUTO 00000KT 10SM CLR 06/05 A3033 RMK AO2 T00590051
K3LF 160415Z AUTO 00000KT 10SM CLR 05/05 A3032 RMK AO2 T00480045
K3LF 160355Z AUTO 00000KT 10SM CLR 06/05 A3032 RMK AO2 T00550046
K3LF 160330Z AUTO 33003KT 10SM CLR 06/05 A3032 RMK AO2 T00610047
K3LF 160315Z AUTO 34003KT 10SM CLR 06/05 A3032 RMK AO2 T00620048
K3LF 160255Z AUTO 31004KT 10SM CLR 07/05 A3032 RMK AO2 T00660050
K3LF 160235Z AUTO 32003KT 10SM CLR 07/05 A3031 RMK AO2 T00700050
K3LF 160215Z AUTO 32005KT 10SM SCT035 07/05 A3031 RMK AO2 T00720051
K3LF 160155Z AUTO 31004KT 10SM BKN035 08/05 A3030 RMK AO2 T00780051
K3LF 160135Z AUTO 31004KT 10SM OVC035 08/05 A3030 RMK AO2 T00830053
K3LF 160115Z AUTO 31005KT 10SM BKN035 09/05 A3029 RMK AO2 T00870050
K3LF 160050Z AUTO 32006KT 10SM SCT035 09/05 A3029 RMK AO2 T00910051
K3LF 160035Z AUTO 32007KT 10SM CLR 10/05 A3028 RMK AO2 T00950050
K3LF 160015Z AUTO 32008KT 10SM SCT037 10/05 A3027 RMK AO2 T01040049
K3LF 152355Z AUTO 33010G14KT 10SM OVC037 11/05 A3026 RMK AO2 T01110050 10155 20111
K3LF 152335Z AUTO 32011KT 10SM OVC037 12/05 A3026 RMK AO2 T01200052
K3LF 152315Z AUTO 32011G15KT 10SM OVC037 12/06 A3026 RMK AO2 T01230057
K3LF 152255Z AUTO 33012KT 10SM OVC039 12/05 A3025 RMK AO2 T01240053
K3LF 152235Z AUTO 33014G18KT 10SM OVC039 13/05 A3024 RMK AO2 T01280053
K3LF 152215Z AUTO 32015G20KT 10SM OVC039 14/06 A3023 RMK AO2 T01360055
K3LF 152155Z AUTO 32015G19KT 10SM BKN041 14/06 A3023 RMK AO2 T01350059
K3LF 152135Z AUTO 31011G19KT 10SM BKN039 14/06 A3022 RMK AO2 T01370058